Mercurius — 5BCU3 — position and weather

sailwx.info

Track history (hours):
 
Tides and Currents Weather Stations Pressure Air Temp Water Temp Dewpoint Dewpoint Depression Visibility Wind Speed Wind Dir Waves Ship Positions

Mercurius

Last reported at 2017-Oct-08 11:59 UTC. Time now 2017-Oct-19 18:41 UTC.
Position N 37°31' W 000°56'.
Warning: this ship's position is 11 days out of date.

Length 180 m; draft 9.9 m.

Type: Cargo ship. MMSI: 209532000.

Date/timePositionNaut miles runAvg speedWind from/ knotsBaromVisibWave heightAir tempDewpointWater temp
2017-Oct-08 11:59N 37°31' W 000°56'612.9
2017-Oct-08 11:30N 37°30' W 000°48'  
2017-Oct-05 22:38N 36°13' E 013°45'213.8
2017-Oct-05 22:30N 36°12' E 013°46'713.6
2017-Oct-05 22:01N 36°08' E 013°54'713.4
2017-Oct-05 21:30N 36°05' E 014°01'613.2
2017-Oct-05 21:00N 36°01' E 014°07'612.2
2017-Oct-05 20:30N 35°59' E 014°14'4 7.4
2017-Oct-05 19:58N 35°57' E 014°19'0 0.1
2017-Oct-05 19:28N 35°57' E 014°19'0 0.0
2017-Oct-05 18:58N 35°57' E 014°19'0 0.0
2017-Oct-05 18:28N 35°57' E 014°19'0 0.1
2017-Oct-05 17:58N 35°57' E 014°19'0 0.0
2017-Oct-05 17:28N 35°57' E 014°19'0 0.0
2017-Oct-05 16:58N 35°57' E 014°19'0 0.1
2017-Oct-05 15:30N 35°57' E 014°19'2 3.7
2017-Oct-05 15:00N 35°56' E 014°17'3 5.6
2017-Oct-05 14:30N 35°55' E 014°14'0 0.5
2017-Oct-05 13:58N 35°55' E 014°14'0 0.5
2017-Oct-05 13:28N 35°55' E 014°14'0 0.7
2017-Oct-05 13:00N 35°55' E 014°15'3 5.8
2017-Oct-05 12:30N 35°57' E 014°13'5 9.8
2017-Oct-05 12:00N 36°01' E 014°09'5 9.7
2017-Oct-05 11:30N 36°06' E 014°10'611.4
2017-Oct-05 11:00N 36°07' E 014°17'510.9
2017-Oct-05 10:30N 36°07' E 014°24'510.9
2017-Oct-05 10:00N 36°08' E 014°31'510.7
2017-Oct-05 09:30N 36°08' E 014°37'  
2017-Sep-30 01:58N 46°57' E 031°60'0 0.0
2017-Sep-30 01:28N 46°57' E 031°60'0 0.0
2017-Sep-30 00:58N 46°57' E 031°60'0 0.0
2017-Sep-30 00:28N 46°57' E 031°60'0 0.0
2017-Sep-29 23:58N 46°57' E 031°60'0 0.0
2017-Sep-29 23:28N 46°57' E 031°60'0 0.0
2017-Sep-29 22:58N 46°57' E 031°60'0 0.0
2017-Sep-29 22:28N 46°57' E 031°60'0 0.0
2017-Sep-29 21:58N 46°57' E 031°60'0 0.0
2017-Sep-29 21:28N 46°57' E 031°60'0 0.0
2017-Sep-29 20:58N 46°57' E 031°60'0 0.0
2017-Sep-29 20:28N 46°57' E 031°60'0 0.0
2017-Sep-29 19:58N 46°57' E 031°60'0 0.0
2017-Sep-29 19:28N 46°57' E 031°60'0 0.0
2017-Sep-29 18:58N 46°57' E 031°60'0 0.0
2017-Sep-29 18:28N 46°57' E 031°60'0 0.0
2017-Sep-29 17:58N 46°57' E 031°60'0 0.0
2017-Sep-29 17:28N 46°57' E 031°60'0 0.0
2017-Sep-29 16:58N 46°57' E 031°60'0 0.0
2017-Sep-29 16:28N 46°57' E 031°60'0 0.0
2017-Sep-29 15:58N 46°57' E 031°60'0 0.0
2017-Sep-29 15:28N 46°57' E 031°60'0 0.0
2017-Sep-29 14:58N 46°57' E 031°60'0 0.0
2017-Sep-29 14:28N 46°57' E 031°60'0 0.0
2017-Sep-29 13:58N 46°57' E 031°60'0 0.0
2017-Sep-29 13:28N 46°57' E 031°60'0 0.0
2017-Sep-29 12:58N 46°57' E 031°60'0 0.0
2017-Sep-29 12:28N 46°57' E 031°60'0 0.0
2017-Sep-29 11:58N 46°57' E 031°60'0 0.0
2017-Sep-29 11:28N 46°57' E 031°60'0 0.0
2017-Sep-29 10:58N 46°57' E 031°60'0 0.0
2017-Sep-29 10:28N 46°57' E 031°60'0 0.0
2017-Sep-29 09:58N 46°57' E 031°60'0 0.0
2017-Sep-29 09:28N 46°57' E 031°60'0 0.0
2017-Sep-29 08:58N 46°57' E 031°60'0 0.0
2017-Sep-29 08:28N 46°57' E 031°60'0 0.0
2017-Sep-29 07:58N 46°57' E 031°60'0 0.0
2017-Sep-29 07:28N 46°57' E 031°60'0 0.0
2017-Sep-29 06:58N 46°57' E 031°60'0 0.0
2017-Sep-29 06:28N 46°57' E 031°60'0 0.0
2017-Sep-29 05:58N 46°57' E 031°60'0 0.0
2017-Sep-29 05:28N 46°57' E 031°60'0 0.0
2017-Sep-29 04:58N 46°57' E 031°60'0 0.0
2017-Sep-29 04:25N 46°57' E 031°60'0 0.0
2017-Sep-29 03:58N 46°57' E 031°60'0 0.0
2017-Sep-29 03:28N 46°57' E 031°60'0 0.0
2017-Sep-29 02:58N 46°57' E 031°60'0 0.0
2017-Sep-29 02:28N 46°57' E 031°60'0 0.0
2017-Sep-29 01:58N 46°57' E 031°60'0 0.0
2017-Sep-29 01:28N 46°57' E 031°60'0 0.0
2017-Sep-29 00:58N 46°57' E 031°60'0 0.0
2017-Sep-29 00:28N 46°57' E 031°60'0 0.0
2017-Sep-28 23:58N 46°57' E 031°60'0 0.0
2017-Sep-28 23:28N 46°57' E 031°60'0 0.0
2017-Sep-28 22:58N 46°57' E 031°60'0 0.0
2017-Sep-28 22:28N 46°57' E 031°60'0 0.0
2017-Sep-28 21:58N 46°57' E 031°60'0 0.0
2017-Sep-28 21:28N 46°57' E 031°60'0 0.0
2017-Sep-28 20:58N 46°57' E 031°60'0 0.0
2017-Sep-28 20:28N 46°57' E 031°60'0 0.0
2017-Sep-28 19:58N 46°57' E 031°60'0 0.0
2017-Sep-28 19:28N 46°57' E 031°60'0 0.0
2017-Sep-28 18:58N 46°57' E 031°60'0 0.0
2017-Sep-28 18:28N 46°57' E 031°60'0 0.0
2017-Sep-28 17:58N 46°57' E 031°60'0 0.0
2017-Sep-28 17:28N 46°57' E 031°60'0 0.0
2017-Sep-28 16:58N 46°57' E 031°60'0 0.0
2017-Sep-28 16:28N 46°57' E 031°60'0 0.0
2017-Sep-28 15:58N 46°57' E 031°60'0 0.0
2017-Sep-28 15:28N 46°57' E 031°60'0 0.0
2017-Sep-28 14:58N 46°57' E 031°60'0 0.0
2017-Sep-28 14:28N 46°57' E 031°60'0 0.0
2017-Sep-28 13:58N 46°57' E 031°60'0 0.0
2017-Sep-28 13:28N 46°57' E 031°60'0 0.0
2017-Sep-28 12:58N 46°57' E 031°60'0 0.0
2017-Sep-28 12:28N 46°57' E 031°60'  
Track history (hours):
 
Tides and Currents Weather Stations Pressure Air Temp Water Temp Dewpoint Dewpoint Depression Visibility Wind Speed Wind Dir Waves Ship Positions

Mercurius

Last reported at 2017-Oct-08 11:59 UTC. Time now 2017-Oct-19 18:41 UTC.
Position N 37°31' W 000°56'.
Warning: this ship's position is 11 days out of date.

Length 180 m; draft 9.9 m.

Type: Cargo ship. MMSI: 209532000.

Date/timePositionNaut miles runAvg speedWind from/ knotsBaromVisibWave heightAir tempDewpointWater temp
2017-Oct-08 11:59N 37°31' W 000°56'612.9
2017-Oct-08 11:30N 37°30' W 000°48'  
2017-Oct-05 22:38N 36°13' E 013°45'213.8
2017-Oct-05 22:30N 36°12' E 013°46'713.6
2017-Oct-05 22:01N 36°08' E 013°54'713.4
2017-Oct-05 21:30N 36°05' E 014°01'613.2
2017-Oct-05 21:00N 36°01' E 014°07'612.2
2017-Oct-05 20:30N 35°59' E 014°14'4 7.4
2017-Oct-05 19:58N 35°57' E 014°19'0 0.1
2017-Oct-05 19:28N 35°57' E 014°19'0 0.0
2017-Oct-05 18:58N 35°57' E 014°19'0 0.0
2017-Oct-05 18:28N 35°57' E 014°19'0 0.1
2017-Oct-05 17:58N 35°57' E 014°19'0 0.0
2017-Oct-05 17:28N 35°57' E 014°19'0 0.0
2017-Oct-05 16:58N 35°57' E 014°19'0 0.1
2017-Oct-05 15:30N 35°57' E 014°19'2 3.7
2017-Oct-05 15:00N 35°56' E 014°17'3 5.6
2017-Oct-05 14:30N 35°55' E 014°14'0 0.5
2017-Oct-05 13:58N 35°55' E 014°14'0 0.5
2017-Oct-05 13:28N 35°55' E 014°14'0 0.7
2017-Oct-05 13:00N 35°55' E 014°15'3 5.8
2017-Oct-05 12:30N 35°57' E 014°13'5 9.8
2017-Oct-05 12:00N 36°01' E 014°09'5 9.7
2017-Oct-05 11:30N 36°06' E 014°10'611.4
2017-Oct-05 11:00N 36°07' E 014°17'510.9
2017-Oct-05 10:30N 36°07' E 014°24'510.9
2017-Oct-05 10:00N 36°08' E 014°31'510.7
2017-Oct-05 09:30N 36°08' E 014°37'  
2017-Sep-30 01:58N 46°57' E 031°60'0 0.0
2017-Sep-30 01:28N 46°57' E 031°60'0 0.0
2017-Sep-30 00:58N 46°57' E 031°60'0 0.0
2017-Sep-30 00:28N 46°57' E 031°60'0 0.0
2017-Sep-29 23:58N 46°57' E 031°60'0 0.0
2017-Sep-29 23:28N 46°57' E 031°60'0 0.0
2017-Sep-29 22:58N 46°57' E 031°60'0 0.0
2017-Sep-29 22:28N 46°57' E 031°60'0 0.0
2017-Sep-29 21:58N 46°57' E 031°60'0 0.0
2017-Sep-29 21:28N 46°57' E 031°60'0 0.0
2017-Sep-29 20:58N 46°57' E 031°60'0 0.0
2017-Sep-29 20:28N 46°57' E 031°60'0 0.0
2017-Sep-29 19:58N 46°57' E 031°60'0 0.0
2017-Sep-29 19:28N 46°57' E 031°60'0 0.0
2017-Sep-29 18:58N 46°57' E 031°60'0 0.0
2017-Sep-29 18:28N 46°57' E 031°60'0 0.0
2017-Sep-29 17:58N 46°57' E 031°60'0 0.0
2017-Sep-29 17:28N 46°57' E 031°60'0 0.0
2017-Sep-29 16:58N 46°57' E 031°60'0 0.0
2017-Sep-29 16:28N 46°57' E 031°60'0 0.0
2017-Sep-29 15:58N 46°57' E 031°60'0 0.0
2017-Sep-29 15:28N 46°57' E 031°60'0 0.0
2017-Sep-29 14:58N 46°57' E 031°60'0 0.0
2017-Sep-29 14:28N 46°57' E 031°60'0 0.0
2017-Sep-29 13:58N 46°57' E 031°60'0 0.0
2017-Sep-29 13:28N 46°57' E 031°60'0 0.0
2017-Sep-29 12:58N 46°57' E 031°60'0 0.0
2017-Sep-29 12:28N 46°57' E 031°60'0 0.0
2017-Sep-29 11:58N 46°57' E 031°60'0 0.0
2017-Sep-29 11:28N 46°57' E 031°60'0 0.0
2017-Sep-29 10:58N 46°57' E 031°60'0 0.0
2017-Sep-29 10:28N 46°57' E 031°60'0 0.0
2017-Sep-29 09:58N 46°57' E 031°60'0 0.0
2017-Sep-29 09:28N 46°57' E 031°60'0 0.0
2017-Sep-29 08:58N 46°57' E 031°60'0 0.0
2017-Sep-29 08:28N 46°57' E 031°60'0 0.0
2017-Sep-29 07:58N 46°57' E 031°60'0 0.0
2017-Sep-29 07:28N 46°57' E 031°60'0 0.0
2017-Sep-29 06:58N 46°57' E 031°60'0 0.0
2017-Sep-29 06:28N 46°57' E 031°60'0 0.0
2017-Sep-29 05:58N 46°57' E 031°60'0 0.0
2017-Sep-29 05:28N 46°57' E 031°60'0 0.0
2017-Sep-29 04:58N 46°57' E 031°60'0 0.0
2017-Sep-29 04:25N 46°57' E 031°60'0 0.0
2017-Sep-29 03:58N 46°57' E 031°60'0 0.0
2017-Sep-29 03:28N 46°57' E 031°60'0 0.0
2017-Sep-29 02:58N 46°57' E 031°60'0 0.0
2017-Sep-29 02:28N 46°57' E 031°60'0 0.0
2017-Sep-29 01:58N 46°57' E 031°60'0 0.0
2017-Sep-29 01:28N 46°57' E 031°60'0 0.0
2017-Sep-29 00:58N 46°57' E 031°60'0 0.0
2017-Sep-29 00:28N 46°57' E 031°60'0 0.0
2017-Sep-28 23:58N 46°57' E 031°60'0 0.0
2017-Sep-28 23:28N 46°57' E 031°60'0 0.0
2017-Sep-28 22:58N 46°57' E 031°60'0 0.0
2017-Sep-28 22:28N 46°57' E 031°60'0 0.0
2017-Sep-28 21:58N 46°57' E 031°60'0 0.0
2017-Sep-28 21:28N 46°57' E 031°60'0 0.0
2017-Sep-28 20:58N 46°57' E 031°60'0 0.0
2017-Sep-28 20:28N 46°57' E 031°60'0 0.0
2017-Sep-28 19:58N 46°57' E 031°60'0 0.0
2017-Sep-28 19:28N 46°57' E 031°60'0 0.0
2017-Sep-28 18:58N 46°57' E 031°60'0 0.0
2017-Sep-28 18:28N 46°57' E 031°60'0 0.0
2017-Sep-28 17:58N 46°57' E 031°60'0 0.0
2017-Sep-28 17:28N 46°57' E 031°60'0 0.0
2017-Sep-28 16:58N 46°57' E 031°60'0 0.0
2017-Sep-28 16:28N 46°57' E 031°60'0 0.0
2017-Sep-28 15:58N 46°57' E 031°60'0 0.0
2017-Sep-28 15:28N 46°57' E 031°60'0 0.0
2017-Sep-28 14:58N 46°57' E 031°60'0 0.0
2017-Sep-28 14:28N 46°57' E 031°60'0 0.0
2017-Sep-28 13:58N 46°57' E 031°60'0 0.0
2017-Sep-28 13:28N 46°57' E 031°60'0 0.0
2017-Sep-28 12:58N 46°57' E 031°60'0 0.0
2017-Sep-28 12:28N 46°57' E 031°60'  

Dump ship's entire track history